Time;durP1;ratioP1;P1;durP2;ratioP2;P2;SDS_P1;SDS_P2;PMS_P1;PMS_P2;Temp;Humidity;BMP_temperature;BMP_pressure;BME280_temperature;BME280_humidity;BME280_pressure;Samples;Min_cycle;Max_cycle;Signal;HPM_P1;HPM_P2
2022/08/30 00:01:32;;;;;;;6.28;1.60;;;18.30;82.70;;;;;;5056018;28;20032;-87
2022/08/30 00:03:59;;;;;;;3.80;1.33;;;18.20;82.60;;;;;;5072198;28;20115;-87
2022/08/30 00:06:27;;;;;;;5.47;1.42;;;18.20;82.80;;;;;;5072461;28;20437;-87
2022/08/30 00:08:53;;;;;;;6.03;1.80;;;18.20;82.80;;;;;;5052495;28;20029;-86
2022/08/30 00:11:26;;;;;;;3.03;1.27;;;18.20;83.00;;;;;;5050881;28;20021;-85
2022/08/30 00:13:55;;;;;;;5.97;1.70;;;18.10;83.10;;;;;;5051647;28;20029;-86
2022/08/30 00:16:22;;;;;;;4.82;1.77;;;18.10;83.10;;;;;;5053228;28;20024;-87
2022/08/30 00:18:48;;;;;;;4.80;1.40;;;18.10;83.00;;;;;;5053163;28;20100;-87
2022/08/30 00:21:14;;;;;;;5.22;1.67;;;18.10;83.50;;;;;;5052079;28;20040;-88
2022/08/30 00:23:40;;;;;;;5.13;1.80;;;18.10;83.50;;;;;;5052431;28;20025;-87
2022/08/30 00:26:06;;;;;;;3.83;1.60;;;18.10;84.30;;;;;;5051805;28;20083;-87
2022/08/30 00:28:32;;;;;;;4.55;1.88;;;18.00;83.80;;;;;;5035490;28;20029;-86
2022/08/30 00:31:00;;;;;;;5.15;1.52;;;18.00;84.10;;;;;;5035161;28;20032;-85
2022/08/30 00:33:26;;;;;;;3.72;1.70;;;18.00;84.10;;;;;;5051975;28;20056;-85
2022/08/30 00:35:52;;;;;;;6.95;2.22;;;18.00;84.20;;;;;;5035353;28;20071;-86
2022/08/30 00:38:18;;;;;;;6.78;2.35;;;18.00;84.40;;;;;;5035057;28;20033;-87
2022/08/30 00:40:45;;;;;;;3.80;2.00;;;18.00;84.40;;;;;;5055732;28;20131;-87
2022/08/30 00:43:18;;;;;;;4.53;1.58;;;17.90;84.40;;;;;;5055872;28;20118;-88
2022/08/30 00:45:45;;;;;;;4.95;1.88;;;17.90;84.60;;;;;;5056016;28;20453;-87
2022/08/30 00:48:11;;;;;;;4.70;2.60;;;17.90;84.50;;;;;;5056832;28;20024;-87
2022/08/30 00:50:45;;;;;;;5.00;2.20;;;17.90;84.80;;;;;;5055580;28;20022;-87
2022/08/30 00:53:17;;;;;;;3.30;1.70;;;17.90;84.70;;;;;;5056938;28;20381;-89
2022/08/30 00:55:44;;;;;;;4.43;2.22;;;17.80;84.70;;;;;;5056539;28;20048;-89
2022/08/30 00:58:15;;;;;;;5.47;2.33;;;17.80;84.70;;;;;;5056263;28;20412;-89
2022/08/30 01:00:41;;;;;;;7.40;2.38;;;17.80;84.90;;;;;;5055932;28;20123;-88
2022/08/30 01:03:08;;;;;;;6.18;2.67;;;17.80;85.20;;;;;;5039262;28;20068;-88
2022/08/30 01:05:37;;;;;;;3.55;2.20;;;17.70;85.30;;;;;;5039550;28;20028;-89
2022/08/30 01:08:04;;;;;;;5.78;2.53;;;17.70;85.30;;;;;;5056789;28;20029;-87
2022/08/30 01:10:31;;;;;;;8.77;3.10;;;17.70;85.30;;;;;;5038577;28;20064;-87
2022/08/30 01:12:57;;;;;;;4.60;2.40;;;17.70;85.40;;;;;;5055437;28;20044;-87
2022/08/30 01:15:23;;;;;;;4.47;2.42;;;17.70;85.60;;;;;;5054675;28;20658;-87
2022/08/30 01:17:49;;;;;;;6.97;2.65;;;17.60;85.50;;;;;;5054870;28;20029;-87
2022/08/30 01:20:22;;;;;;;4.88;2.30;;;17.70;85.90;;;;;;5039032;28;20072;-86
2022/08/30 01:22:48;;;;;;;5.82;2.58;;;17.60;85.80;;;;;;5055351;28;20021;-87
2022/08/30 01:25:19;;;;;;;6.35;2.47;;;17.60;85.90;;;;;;5055392;28;20033;-86
2022/08/30 01:27:52;;;;;;;4.22;2.65;;;17.60;86.20;;;;;;5055737;28;20078;-86
2022/08/30 01:30:18;;;;;;;4.13;2.58;;;17.60;86.30;;;;;;5054328;28;20021;-86
2022/08/30 01:32:46;;;;;;;4.57;2.42;;;17.50;86.20;;;;;;5054830;28;20021;-86
2022/08/30 01:35:16;;;;;;;7.35;2.50;;;17.60;86.30;;;;;;5054792;28;20489;-86
2022/08/30 01:37:44;;;;;;;5.43;2.95;;;17.50;86.40;;;;;;5057425;28;20017;-88
2022/08/30 01:40:11;;;;;;;5.45;2.47;;;17.50;86.60;;;;;;5057615;28;20033;-88
2022/08/30 01:42:37;;;;;;;7.78;2.92;;;17.50;87.50;;;;;;5056498;28;20047;-86
2022/08/30 01:45:05;;;;;;;5.20;2.55;;;17.40;86.80;;;;;;5054686;28;20473;-87
2022/08/30 01:47:30;;;;;;;4.32;2.58;;;17.40;86.80;;;;;;5055669;28;20028;-87
2022/08/30 01:49:57;;;;;;;5.78;3.10;;;17.40;86.90;;;;;;5037732;28;20211;-87
2022/08/30 01:52:24;;;;;;;5.20;2.80;;;17.40;87.00;;;;;;5038199;28;20067;-88
2022/08/30 01:54:50;;;;;;;5.50;3.13;;;17.40;87.10;;;;;;5054736;28;20032;-88
2022/08/30 01:57:20;;;;;;;5.28;2.50;;;17.40;87.20;;;;;;5054392;28;20021;-88
2022/08/30 01:59:46;;;;;;;6.53;2.85;;;17.40;87.20;;;;;;5054161;28;20053;-87
2022/08/30 02:02:14;;;;;;;6.80;3.20;;;17.30;87.50;;;;;;5038173;28;20517;-87
2022/08/30 02:04:39;;;;;;;4.20;2.70;;;17.30;87.40;;;;;;5054845;28;20029;-88
2022/08/30 02:07:05;;;;;;;6.07;3.30;;;17.40;87.50;;;;;;5037755;28;20474;-89
2022/08/30 02:09:31;;;;;;;4.60;2.80;;;17.30;87.50;;;;;;5037846;28;20033;-87
2022/08/30 02:11:56;;;;;;;5.97;3.20;;;17.30;87.80;;;;;;5037815;28;20091;-88
2022/08/30 02:14:22;;;;;;;6.03;3.25;;;17.30;87.90;;;;;;5038763;28;20116;-87
2022/08/30 02:16:48;;;;;;;5.28;3.40;;;17.30;87.70;;;;;;5038093;28;20041;-87
2022/08/30 02:19:14;;;;;;;6.43;3.78;;;17.20;87.70;;;;;;5037644;28;20029;-87
2022/08/30 02:21:39;;;;;;;5.07;3.47;;;17.20;87.70;;;;;;5054082;28;20082;-88
2022/08/30 02:24:05;;;;;;;6.32;3.55;;;17.20;88.10;;;;;;5056661;28;20473;-89
2022/08/30 02:26:31;;;;;;;6.70;3.65;;;17.20;88.60;;;;;;5057320;28;20053;-88
2022/08/30 02:28:57;;;;;;;6.47;3.75;;;17.10;87.90;;;;;;5057682;28;20032;-88
2022/08/30 02:31:23;;;;;;;7.68;3.50;;;17.20;88.00;;;;;;5040863;28;20029;-87
2022/08/30 02:33:50;;;;;;;5.72;3.22;;;17.10;88.10;;;;;;5057855;28;20104;-87
2022/08/30 02:36:19;;;;;;;4.70;3.05;;;17.10;88.30;;;;;;5055705;28;20139;-89
2022/08/30 02:38:45;;;;;;;6.95;3.50;;;17.10;88.30;;;;;;5054927;28;20017;-88
2022/08/30 02:41:10;;;;;;;6.43;3.35;;;17.10;88.30;;;;;;5056614;28;20045;-89
2022/08/30 02:43:36;;;;;;;6.05;3.72;;;17.10;88.50;;;;;;5057431;28;20051;-88
2022/08/30 02:46:01;;;;;;;6.43;3.58;;;17.10;88.70;;;;;;5060314;28;20393;-89
2022/08/30 02:48:27;;;;;;;6.97;3.72;;;17.00;88.60;;;;;;5058476;28;20063;-88
2022/08/30 02:50:53;;;;;;;6.85;3.80;;;17.00;88.70;;;;;;5038642;28;20067;-87
2022/08/30 02:53:19;;;;;;;7.38;4.03;;;17.00;88.90;;;;;;5056179;28;20044;-89
2022/08/30 02:55:46;;;;;;;9.25;3.72;;;17.00;88.90;;;;;;5054133;28;20040;-87
2022/08/30 02:58:12;;;;;;;6.00;4.00;;;17.00;88.90;;;;;;5054078;28;20035;-88
2022/08/30 03:00:41;;;;;;;5.90;3.95;;;17.00;89.10;;;;;;5053683;28;20053;-87
2022/08/30 03:03:07;;;;;;;6.45;4.03;;;16.90;89.10;;;;;;5036735;28;20025;-87
2022/08/30 03:05:33;;;;;;;8.88;4.45;;;16.90;89.10;;;;;;5054754;28;20025;-88
2022/08/30 03:08:00;;;;;;;6.15;4.40;;;16.90;89.30;;;;;;5054486;28;20557;-88
2022/08/30 03:10:26;;;;;;;6.65;4.32;;;16.90;89.40;;;;;;5036589;28;20082;-86
2022/08/30 03:12:53;;;;;;;7.47;4.13;;;16.90;89.40;;;;;;5053572;28;21016;-88
2022/08/30 03:15:24;;;;;;;7.85;4.97;;;16.80;89.60;;;;;;5053473;28;20052;-88
2022/08/30 03:17:51;;;;;;;8.88;5.57;;;16.90;90.00;;;;;;5053320;28;20028;-87
2022/08/30 03:20:16;;;;;;;7.97;4.30;;;16.80;90.00;;;;;;5053552;28;20033;-88
2022/08/30 03:22:42;;;;;;;7.57;4.70;;;16.80;90.00;;;;;;5037094;28;20028;-87
2022/08/30 03:25:08;;;;;;;9.88;5.18;;;16.80;90.00;;;;;;5052723;28;20489;-87
2022/08/30 03:27:34;;;;;;;7.97;4.85;;;16.80;90.10;;;;;;5053287;28;20021;-86
2022/08/30 03:30:00;;;;;;;7.95;5.18;;;16.70;90.10;;;;;;5053554;28;20465;-88
2022/08/30 03:32:27;;;;;;;8.93;5.60;;;16.70;90.10;;;;;;5053820;28;20112;-88
2022/08/30 03:34:52;;;;;;;6.55;4.35;;;16.70;90.10;;;;;;5053219;28;20116;-87
2022/08/30 03:37:19;;;;;;;7.60;5.13;;;16.70;90.10;;;;;;5036798;28;20064;-87
2022/08/30 03:39:44;;;;;;;7.70;4.70;;;16.70;90.20;;;;;;5036473;28;20037;-87
2022/08/30 03:42:10;;;;;;;7.93;5.60;;;16.60;90.20;;;;;;5054740;28;20108;-89
2022/08/30 03:44:36;;;;;;;7.35;5.55;;;16.60;90.30;;;;;;5054459;28;20055;-88
2022/08/30 03:47:03;;;;;;;8.32;5.28;;;16.60;90.40;;;;;;5054955;28;20052;-86
2022/08/30 03:49:28;;;;;;;9.88;5.43;;;16.60;90.30;;;;;;5053693;28;20040;-87
2022/08/30 03:51:54;;;;;;;7.75;5.20;;;16.50;90.40;;;;;;5036385;28;20070;-88
2022/08/30 03:54:20;;;;;;;8.73;5.63;;;16.50;90.40;;;;;;5037104;28;20021;-90
2022/08/30 03:56:45;;;;;;;7.63;5.07;;;16.60;90.40;;;;;;5022126;28;20025;-88
2022/08/30 03:59:11;;;;;;;8.60;5.43;;;16.50;90.40;;;;;;5055263;28;20052;-87
2022/08/30 04:01:38;;;;;;;10.50;5.88;;;16.50;90.40;;;;;;5038229;28;20056;-86
2022/08/30 04:04:04;;;;;;;8.82;5.55;;;16.40;90.50;;;;;;5037641;28;20380;-87
2022/08/30 04:06:29;;;;;;;8.32;5.35;;;16.40;90.50;;;;;;5053777;28;20104;-88
2022/08/30 04:08:55;;;;;;;9.10;5.47;;;16.40;90.50;;;;;;5054317;28;20522;-87
2022/08/30 04:11:21;;;;;;;6.05;4.85;;;16.40;90.60;;;;;;5054059;28;20542;-87
2022/08/30 04:13:50;;;;;;;7.65;5.10;;;16.40;90.60;;;;;;5036499;28;20052;-88
2022/08/30 04:16:20;;;;;;;8.80;4.95;;;16.40;90.70;;;;;;5057174;28;20087;-87
2022/08/30 04:18:46;;;;;;;7.57;5.32;;;16.40;90.60;;;;;;5056643;28;20020;-87
2022/08/30 04:21:12;;;;;;;7.22;4.82;;;16.40;90.60;;;;;;5056915;28;20044;-88
2022/08/30 04:23:38;;;;;;;7.63;5.05;;;16.30;90.70;;;;;;5039988;28;20036;-88
2022/08/30 04:26:04;;;;;;;7.80;5.45;;;16.30;90.70;;;;;;5056893;28;20568;-88
2022/08/30 04:28:30;;;;;;;6.70;5.00;;;16.30;90.70;;;;;;5056840;28;20033;-87
2022/08/30 04:30:55;;;;;;;9.82;4.72;;;16.30;90.80;;;;;;5059670;28;20048;-86
2022/08/30 04:33:21;;;;;;;7.40;4.88;;;16.30;90.70;;;;;;5046990;28;20041;-88
2022/08/30 04:35:48;;;;;;;7.70;4.50;;;16.30;90.90;;;;;;5046442;28;20029;-87
2022/08/30 04:38:15;;;;;;;10.23;5.63;;;16.30;90.90;;;;;;5061571;28;20028;-88
2022/08/30 04:40:43;;;;;;;8.45;4.45;;;16.30;90.90;;;;;;5059838;28;20041;-88
2022/08/30 04:43:11;;;;;;;7.03;4.40;;;16.20;90.80;;;;;;5062251;28;20035;-88
2022/08/30 04:45:38;;;;;;;6.18;4.30;;;16.20;90.90;;;;;;5064200;28;20116;-89
2022/08/30 04:48:05;;;;;;;7.30;4.80;;;16.20;90.90;;;;;;5063601;28;20025;-87
2022/08/30 04:50:31;;;;;;;6.15;4.03;;;16.20;90.90;;;;;;5065463;28;20040;-88
2022/08/30 04:52:57;;;;;;;8.00;3.70;;;16.20;91.00;;;;;;5060090;28;20127;-87
2022/08/30 04:55:24;;;;;;;5.90;3.67;;;16.20;90.90;;;;;;5058984;28;20497;-87
2022/08/30 04:57:51;;;;;;;7.93;3.88;;;16.20;90.90;;;;;;5057353;28;20032;-86
2022/08/30 05:00:19;;;;;;;5.07;3.35;;;16.20;90.90;;;;;;5056720;28;20090;-88
2022/08/30 05:02:45;;;;;;;6.07;3.97;;;16.20;90.90;;;;;;5055781;28;20028;-89
2022/08/30 05:07:55;;;;;;;4.93;3.10;;;16.10;90.90;;;;;;5056060;28;20095;-88
2022/08/30 05:10:22;;;;;;;5.38;2.72;;;16.10;90.90;;;;;;5039060;28;20380;-87
2022/08/30 05:12:48;;;;;;;4.18;2.70;;;16.20;90.90;;;;;;5055452;28;20021;-87
2022/08/30 05:15:13;;;;;;;5.88;2.75;;;16.10;90.90;;;;;;5038775;28;20029;-87
2022/08/30 05:17:40;;;;;;;4.68;2.40;;;16.20;90.90;;;;;;5057324;28;20028;-88
2022/08/30 05:20:08;;;;;;;4.45;2.22;;;16.20;90.90;;;;;;5056621;28;20037;-88
2022/08/30 05:22:39;;;;;;;9.25;2.72;;;16.20;90.90;;;;;;5055096;28;20043;-86
2022/08/30 05:25:05;;;;;;;6.00;1.98;;;16.20;90.90;;;;;;5055164;28;20047;-89
2022/08/30 05:27:31;;;;;;;3.67;2.10;;;16.30;90.90;;;;;;5038783;28;20029;-87
2022/08/30 05:29:56;;;;;;;5.47;1.80;;;16.30;90.80;;;;;;5055355;28;20082;-88
2022/08/30 05:32:22;;;;;;;4.43;1.90;;;16.30;90.80;;;;;;5040246;28;20029;-82
2022/08/30 05:34:48;;;;;;;5.53;1.80;;;16.40;90.70;;;;;;5074094;28;20117;-82
2022/08/30 05:37:13;;;;;;;3.90;2.20;;;16.40;90.70;;;;;;5057398;28;20041;-82
2022/08/30 05:39:39;;;;;;;2.70;1.17;;;16.40;90.60;;;;;;5072349;28;20041;-83
2022/08/30 05:42:05;;;;;;;3.72;1.75;;;16.40;90.60;;;;;;5057280;28;20059;-82
2022/08/30 05:44:31;;;;;;;6.57;1.70;;;16.50;90.60;;;;;;5045037;28;20150;-82
2022/08/30 05:46:56;;;;;;;3.55;1.50;;;16.50;90.50;;;;;;5053988;28;20029;-82
2022/08/30 05:49:22;;;;;;;7.75;1.42;;;16.60;90.50;;;;;;5054024;28;20036;-82
2022/08/30 05:51:48;;;;;;;3.40;1.33;;;16.60;90.40;;;;;;5056242;28;20070;-82
2022/08/30 05:54:14;;;;;;;4.00;1.70;;;16.60;90.40;;;;;;5047023;28;20040;-81
2022/08/30 05:56:44;;;;;;;3.60;1.40;;;16.70;90.30;;;;;;5055262;28;20033;-82
2022/08/30 05:59:10;;;;;;;3.92;1.38;;;16.70;90.20;;;;;;5057879;28;20048;-82
2022/08/30 06:01:42;;;;;;;5.45;1.52;;;16.70;90.10;;;;;;5041246;28;20033;-81
2022/08/30 06:04:09;;;;;;;3.15;1.52;;;16.80;90.10;;;;;;5066627;28;20020;-83
2022/08/30 06:06:37;;;;;;;3.70;1.33;;;16.80;90.00;;;;;;5070950;28;20480;-81
2022/08/30 06:09:04;;;;;;;4.30;1.67;;;16.80;89.90;;;;;;5069626;28;20020;-81
2022/08/30 06:11:30;;;;;;;3.00;1.17;;;16.90;89.70;;;;;;5066430;28;20029;-82
2022/08/30 06:13:56;;;;;;;2.53;1.10;;;16.90;89.60;;;;;;5073159;28;20039;-83
2022/08/30 06:16:23;;;;;;;3.65;1.45;;;17.00;89.50;;;;;;5070538;28;20039;-82
2022/08/30 06:18:53;;;;;;;3.15;1.13;;;17.00;89.20;;;;;;5054939;28;20020;-82
2022/08/30 06:21:27;;;;;;;2.88;1.20;;;17.00;88.90;;;;;;5070957;28;20040;-82
2022/08/30 06:23:53;;;;;;;2.25;1.10;;;17.00;88.60;;;;;;5055431;28;20029;-82
2022/08/30 06:26:19;;;;;;;2.65;0.90;;;17.10;88.40;;;;;;5049900;28;20037;-83
2022/08/30 06:28:45;;;;;;;2.22;0.80;;;17.10;88.20;;;;;;5053709;28;20066;-83
2022/08/30 06:31:14;;;;;;;3.17;0.75;;;17.20;87.70;;;;;;5069808;28;20118;-82
2022/08/30 06:33:39;;;;;;;3.55;0.80;;;17.20;87.50;;;;;;5071961;28;20017;-83
2022/08/30 06:36:08;;;;;;;2.70;0.88;;;17.30;87.40;;;;;;5069655;28;20362;-83
2022/08/30 06:38:34;;;;;;;1.90;0.60;;;17.30;87.20;;;;;;5068990;28;20473;-83
2022/08/30 06:41:08;;;;;;;3.47;0.80;;;17.30;87.10;;;;;;5063214;28;20033;-82
2022/08/30 06:43:34;;;;;;;2.97;0.80;;;17.40;86.90;;;;;;5062360;28;20379;-82
2022/08/30 06:46:05;;;;;;;2.20;0.60;;;17.40;86.60;;;;;;5063094;28;20105;-81
2022/08/30 06:48:30;;;;;;;2.25;0.60;;;17.50;86.30;;;;;;5062158;28;20096;-82
2022/08/30 06:50:58;;;;;;;2.50;0.80;;;17.60;86.10;;;;;;5070673;28;20112;-82
2022/08/30 06:53:25;;;;;;;2.72;0.90;;;17.50;85.70;;;;;;5048106;28;20037;-82
2022/08/30 06:56:08;;;;;;;3.15;0.80;;;17.60;85.60;;;;;;5072250;28;20530;-82
2022/08/30 06:58:36;;;;;;;2.08;0.60;;;17.60;85.30;;;;;;5070935;28;20050;-82
2022/08/30 07:01:03;;;;;;;3.22;0.70;;;17.70;85.20;;;;;;5057236;28;20102;-82
2022/08/30 07:03:29;;;;;;;2.70;0.70;;;17.70;84.90;;;;;;5035600;28;20025;-82
2022/08/30 07:05:56;;;;;;;3.33;0.50;;;17.80;84.50;;;;;;5035549;28;20040;-83
2022/08/30 07:08:23;;;;;;;2.05;0.50;;;17.80;84.20;;;;;;5058018;28;20041;-82
2022/08/30 07:10:50;;;;;;;3.55;0.60;;;17.80;83.70;;;;;;5053314;28;20056;-82
2022/08/30 07:13:18;;;;;;;3.30;0.65;;;17.80;83.50;;;;;;5067459;28;20028;-83
2022/08/30 07:15:45;;;;;;;4.38;0.60;;;17.90;83.20;;;;;;5053910;28;20107;-82
2022/08/30 07:20:56;;;;;;;2.20;0.70;;;17.90;82.40;;;;;;5059880;28;20479;-82
2022/08/30 07:23:23;;;;;;;1.17;0.57;;;18.00;82.10;;;;;;5059929;28;20112;-82
2022/08/30 07:25:49;;;;;;;3.33;0.70;;;18.00;82.00;;;;;;5052001;28;20031;-83
2022/08/30 07:28:15;;;;;;;3.92;0.60;;;18.10;81.90;;;;;;5053732;28;20025;-83
2022/08/30 07:30:41;;;;;;;6.63;0.80;;;18.20;81.80;;;;;;5053779;28;20465;-82
2022/08/30 07:33:07;;;;;;;2.15;0.73;;;18.20;81.20;;;;;;5036086;28;20074;-83
2022/08/30 07:35:34;;;;;;;2.25;0.60;;;18.20;81.20;;;;;;5035193;28;20032;-82
2022/08/30 07:37:59;;;;;;;4.78;0.90;;;18.30;80.90;;;;;;5053114;28;20040;-83
2022/08/30 07:40:25;;;;;;;3.08;0.70;;;18.40;80.90;;;;;;5051867;28;20037;-83
2022/08/30 07:42:51;;;;;;;3.45;0.60;;;18.40;80.70;;;;;;5056968;28;20057;-82
2022/08/30 07:45:17;;;;;;;3.35;0.77;;;18.50;80.70;;;;;;5044602;28;20071;-82
2022/08/30 07:47:43;;;;;;;2.45;1.02;;;18.50;80.50;;;;;;5045898;28;20030;-83
2022/08/30 07:50:10;;;;;;;2.15;0.50;;;18.60;80.40;;;;;;5063455;28;20024;-82
2022/08/30 07:52:36;;;;;;;4.38;0.70;;;18.60;80.10;;;;;;5071837;28;20031;-83
2022/08/30 07:55:03;;;;;;;2.92;0.43;;;18.70;79.60;;;;;;5071957;28;20100;-82
2022/08/30 07:57:32;;;;;;;2.25;0.52;;;18.70;79.20;;;;;;5072220;28;20025;-82
2022/08/30 07:59:58;;;;;;;2.28;0.60;;;18.80;79.10;;;;;;5073114;28;20057;-84
2022/08/30 08:02:24;;;;;;;1.17;0.40;;;18.80;78.70;;;;;;5072044;28;20039;-84
2022/08/30 08:04:50;;;;;;;2.58;0.73;;;18.90;78.50;;;;;;5071734;28;20464;-83
2022/08/30 08:07:17;;;;;;;3.78;0.70;;;18.90;78.10;;;;;;5071596;28;20082;-83
2022/08/30 08:09:43;;;;;;;2.58;0.70;;;19.00;77.90;;;;;;5055312;28;20116;-82
2022/08/30 08:12:09;;;;;;;2.28;0.30;;;19.10;77.70;;;;;;5071548;28;20421;-82
2022/08/30 08:14:35;;;;;;;2.25;0.45;;;19.20;77.40;;;;;;5054866;28;20392;-82
2022/08/30 08:17:01;;;;;;;3.88;0.70;;;19.20;77.30;;;;;;5071442;28;20102;-82
2022/08/30 08:19:27;;;;;;;2.75;0.45;;;19.30;77.00;;;;;;5068691;28;20450;-83
2022/08/30 08:21:58;;;;;;;2.97;0.52;;;19.40;76.80;;;;;;5044973;28;20017;-83
2022/08/30 08:24:26;;;;;;;5.25;0.93;;;19.50;75.90;;;;;;5062184;28;20103;-84
2022/08/30 08:26:52;;;;;;;3.38;0.63;;;19.50;75.30;;;;;;5061648;28;20021;-83
2022/08/30 08:29:17;;;;;;;2.35;0.55;;;19.60;74.80;;;;;;5061153;28;20048;-84
2022/08/30 08:31:44;;;;;;;4.90;0.88;;;19.60;74.70;;;;;;5059919;28;20044;-84
2022/08/30 08:34:10;;;;;;;2.40;0.60;;;19.70;74.60;;;;;;5045051;28;20158;-84
2022/08/30 08:36:36;;;;;;;1.42;0.50;;;19.80;74.20;;;;;;5044651;28;20409;-84
2022/08/30 08:39:04;;;;;;;3.53;0.60;;;19.90;73.70;;;;;;5060986;28;20064;-82
2022/08/30 08:41:59;;;;;;;2.83;0.60;;;20.00;73.50;;;;;;5061798;28;20032;-82
2022/08/30 08:44:39;;;;;;;1.85;0.57;;;20.10;73.10;;;;;;5095690;28;20464;-83
2022/08/30 08:47:26;;;;;;;3.13;0.50;;;20.20;72.60;;;;;;5061947;28;20667;-84
2022/08/30 08:49:57;;;;;;;2.08;0.60;;;20.30;71.90;;;;;;5061621;28;20392;-83
2022/08/30 08:55:17;;;;;;;6.00;0.90;;;20.40;71.40;;;;;;5063102;28;20123;-82
2022/08/30 08:57:43;;;;;;;2.70;0.47;;;20.50;70.90;;;;;;5061830;28;20094;-82
2022/08/30 09:00:13;;;;;;;2.38;0.63;;;20.60;70.40;;;;;;5060071;28;20053;-82
2022/08/30 09:02:50;;;;;;;2.80;0.47;;;20.70;70.10;;;;;;5058379;28;20039;-82
2022/08/30 09:05:23;;;;;;;2.50;0.60;;;20.80;69.50;;;;;;5069776;28;20033;-82
2022/08/30 09:07:56;;;;;;;2.45;0.70;;;20.90;67.40;;;;;;5070026;28;20032;-82
2022/08/30 09:10:23;;;;;;;4.90;0.50;;;21.00;66.50;;;;;;5073368;28;20020;-82
2022/08/30 09:12:49;;;;;;;5.72;0.50;;;21.10;66.20;;;;;;5054055;28;20033;-82
2022/08/30 09:15:20;;;;;;;4.75;0.60;;;21.20;66.20;;;;;;5074342;28;20507;-83
2022/08/30 09:18:09;;;;;;;1.48;0.57;;;21.30;66.30;;;;;;5073903;28;20169;-82
2022/08/30 09:20:44;;;;;;;2.08;0.65;;;21.40;66.00;;;;;;5074911;28;20111;-83
2022/08/30 09:23:19;;;;;;;1.73;0.65;;;21.50;65.60;;;;;;5073091;28;20029;-82
2022/08/30 09:25:56;;;;;;;1.92;0.60;;;21.60;65.30;;;;;;5070669;28;20025;-82
2022/08/30 09:28:29;;;;;;;1.65;0.50;;;21.60;64.80;;;;;;5075394;28;20032;-82
2022/08/30 09:31:15;;;;;;;2.80;0.40;;;21.80;64.50;;;;;;5078003;28;20052;-83
2022/08/30 09:33:53;;;;;;;2.17;0.60;;;21.80;64.30;;;;;;5072156;28;20138;-83
2022/08/30 09:36:24;;;;;;;3.28;0.82;;;22.00;64.00;;;;;;5079258;28;20020;-83
2022/08/30 09:39:06;;;;;;;2.25;0.52;;;22.10;63.30;;;;;;5079955;28;20541;-82
2022/08/30 09:41:38;;;;;;;1.98;0.60;;;22.20;63.10;;;;;;5073480;28;20043;-83
2022/08/30 09:44:08;;;;;;;3.75;0.43;;;22.30;62.50;;;;;;5074476;28;20038;-82
2022/08/30 09:46:46;;;;;;;2.35;0.55;;;22.40;62.50;;;;;;5086627;28;20024;-82
2022/08/30 09:49:26;;;;;;;0.90;0.40;;;22.50;62.30;;;;;;5075950;28;20563;-82
2022/08/30 09:52:03;;;;;;;2.90;0.47;;;22.60;62.00;;;;;;5080800;28;20044;-83
2022/08/30 09:54:56;;;;;;;2.00;0.70;;;22.80;62.00;;;;;;5084711;28;20623;-82
2022/08/30 09:57:43;;;;;;;4.47;0.70;;;22.90;61.50;;;;;;5069824;28;20559;-83
2022/08/30 10:00:27;;;;;;;2.42;0.40;;;22.90;60.90;;;;;;5072112;28;20041;-83
2022/08/30 10:03:19;;;;;;;1.25;0.47;;;23.10;60.80;;;;;;5074477;28;20025;-81
2022/08/30 10:05:51;;;;;;;5.07;0.50;;;23.20;60.40;;;;;;5067300;28;20025;-82
2022/08/30 10:08:37;;;;;;;2.22;0.40;;;23.30;60.40;;;;;;5070309;28;20032;-83
2022/08/30 10:11:26;;;;;;;3.30;0.45;;;23.40;59.10;;;;;;5070075;28;20055;-83
2022/08/30 10:14:20;;;;;;;1.75;0.50;;;23.50;58.30;;;;;;5069593;28;20025;-83
2022/08/30 10:17:08;;;;;;;2.67;0.70;;;23.70;57.90;;;;;;5072542;28;20484;-83
2022/08/30 10:20:09;;;;;;;4.03;0.57;;;24.00;57.30;;;;;;5072520;28;20123;-83
2022/08/30 10:22:50;;;;;;;2.05;0.40;;;24.30;56.90;;;;;;5071637;28;20025;-82
2022/08/30 10:25:17;;;;;;;2.17;0.40;;;24.70;56.70;;;;;;5073236;28;20131;-83
2022/08/30 10:27:59;;;;;;;3.17;0.55;;;25.00;56.70;;;;;;5071841;28;20017;-83
2022/08/30 10:30:26;;;;;;;1.40;0.40;;;25.40;55.90;;;;;;5069131;28;20032;-82
2022/08/30 10:33:01;;;;;;;4.85;0.50;;;25.90;55.90;;;;;;5053494;28;20435;-83
2022/08/30 10:35:31;;;;;;;3.17;0.50;;;26.40;54.70;;;;;;5072082;28;20112;-84
2022/08/30 10:38:02;;;;;;;2.03;0.50;;;26.90;53.90;;;;;;5070293;28;20033;-83
2022/08/30 10:43:30;;;;;;;1.42;0.40;;;27.90;52.70;;;;;;5070111;28;20094;-80
2022/08/30 10:46:01;;;;;;;2.90;0.40;;;28.40;52.80;;;;;;5077519;28;20052;-93
2022/08/30 10:48:34;;;;;;;1.40;0.40;;;28.90;51.50;;;;;;5076812;28;20060;-93
2022/08/30 10:51:03;;;;;;;;;;;29.20;50.70;;;;;;5080086;28;20035;-93
2022/08/30 10:53:40;;;;;;;4.13;0.50;;;29.10;50.40;;;;;;5079053;28;20352;-93
2022/08/30 10:56:12;;;;;;;2.78;0.50;;;29.10;50.20;;;;;;5073466;28;20086;-93
2022/08/30 10:58:39;;;;;;;3.33;0.52;;;29.10;49.60;;;;;;5103705;28;20123;-92
2022/08/30 11:01:37;;;;;;;1.23;0.40;;;29.10;48.90;;;;;;5056412;28;20516;-93
2022/08/30 11:04:30;;;;;;;2.45;0.50;;;29.00;47.90;;;;;;5070293;28;20025;-93
2022/08/30 11:07:14;;;;;;;1.55;0.38;;;29.00;47.70;;;;;;5073938;28;20112;-92
2022/08/30 11:09:59;;;;;;;4.53;0.50;;;29.00;47.70;;;;;;5066492;28;20481;-92
2022/08/30 11:12:36;;;;;;;1.85;0.40;;;29.00;47.60;;;;;;5071161;28;20067;-92
2022/08/30 11:15:15;;;;;;;2.55;0.50;;;29.00;47.70;;;;;;5072148;28;20020;-92
2022/08/30 11:17:53;;;;;;;1.80;0.65;;;29.00;47.70;;;;;;5074388;28;20071;-91
2022/08/30 11:20:39;;;;;;;1.90;0.50;;;28.90;47.90;;;;;;5070697;28;20076;-89
2022/08/30 11:23:17;;;;;;;1.90;0.45;;;29.00;47.70;;;;;;5073266;28;20039;-92
2022/08/30 11:26:05;;;;;;;1.42;0.50;;;29.10;47.40;;;;;;5072134;28;20125;-91
2022/08/30 11:28:50;;;;;;;2.45;0.50;;;29.10;46.90;;;;;;5072775;28;20098;-91
2022/08/30 11:31:19;;;;;;;1.95;0.57;;;29.20;46.50;;;;;;5067384;28;20055;-88
2022/08/30 11:33:55;;;;;;;3.28;0.60;;;29.40;46.60;;;;;;5071585;28;20503;-91
2022/08/30 11:36:27;;;;;;;2.45;0.50;;;29.50;46.30;;;;;;5071427;28;20048;-89
2022/08/30 11:38:53;;;;;;;2.70;0.50;;;29.60;45.70;;;;;;5073399;28;20081;-90
2022/08/30 11:41:32;;;;;;;4.68;0.50;;;29.80;45.60;;;;;;5068393;28;20115;-93
2022/08/30 11:44:20;;;;;;;3.60;0.50;;;29.90;45.00;;;;;;5084811;28;20032;-88
2022/08/30 11:46:59;;;;;;;1.02;0.32;;;30.10;44.70;;;;;;5066850;28;20025;-89
2022/08/30 11:49:30;;;;;;;3.42;0.50;;;30.30;44.90;;;;;;5073026;28;20028;-89
2022/08/30 11:52:14;;;;;;;1.35;0.40;;;30.40;44.80;;;;;;5072281;28;20024;-92
2022/08/30 11:55:11;;;;;;;2.65;0.40;;;30.50;44.60;;;;;;5070012;28;20461;-91
2022/08/30 11:58:09;;;;;;;2.53;0.40;;;30.60;43.90;;;;;;5069703;28;20108;-91
2022/08/30 12:00:41;;;;;;;2.67;0.32;;;30.80;43.80;;;;;;5069223;28;20052;-91
2022/08/30 12:03:13;;;;;;;2.03;0.60;;;31.00;44.00;;;;;;5073477;28;20029;-91
2022/08/30 12:05:43;;;;;;;3.38;0.45;;;31.10;43.60;;;;;;5071842;28;20127;-91
2022/08/30 12:08:26;;;;;;;1.23;0.47;;;31.30;43.50;;;;;;5072937;28;20035;-91
2022/08/30 12:11:05;;;;;;;2.05;0.57;;;31.30;43.20;;;;;;5071971;28;20044;-90
2022/08/30 12:13:36;;;;;;;2.53;0.40;;;31.50;42.60;;;;;;5072405;28;20036;-88
2022/08/30 12:16:07;;;;;;;3.55;0.55;;;31.50;42.30;;;;;;5073498;28;20024;-90
2022/08/30 12:18:45;;;;;;;1.77;0.50;;;31.60;42.30;;;;;;5068828;28;20050;-89
2022/08/30 12:21:25;;;;;;;1.48;0.50;;;31.70;42.00;;;;;;5070632;28;20036;-90
2022/08/30 12:24:17;;;;;;;3.08;0.30;;;31.80;41.50;;;;;;5072761;28;20023;-91
2022/08/30 12:26:45;;;;;;;4.65;0.47;;;31.80;41.30;;;;;;5069402;28;20036;-90
2022/08/30 12:29:14;;;;;;;1.83;0.60;;;31.90;41.50;;;;;;5071448;28;20104;-89
2022/08/30 12:31:51;;;;;;;1.65;0.40;;;31.90;41.30;;;;;;5073874;28;20033;-90
2022/08/30 12:34:54;;;;;;;0.93;0.30;;;32.00;41.00;;;;;;5081177;28;20138;-90
2022/08/30 12:37:30;;;;;;;0.95;0.38;;;32.00;40.90;;;;;;5083020;28;20032;-89
2022/08/30 12:40:18;;;;;;;1.58;0.52;;;32.10;41.10;;;;;;5086974;28;20059;-90
2022/08/30 12:43:03;;;;;;;1.45;0.43;;;32.30;40.60;;;;;;5089232;28;20016;-88
2022/08/30 12:45:42;;;;;;;1.58;0.40;;;32.50;40.50;;;;;;5088386;28;20028;-87
2022/08/30 12:48:12;;;;;;;2.92;0.40;;;32.60;40.70;;;;;;5084764;28;20017;-88
2022/08/30 12:50:50;;;;;;;1.73;0.40;;;32.70;40.40;;;;;;5088144;28;20028;-90
2022/08/30 12:53:27;;;;;;;5.18;0.50;;;32.90;39.80;;;;;;5089079;28;20046;-88
2022/08/30 12:56:14;;;;;;;2.75;0.57;;;33.00;39.60;;;;;;5089155;28;20028;-89
2022/08/30 12:58:50;;;;;;;0.70;0.30;;;33.10;39.10;;;;;;5088180;28;20070;-87
2022/08/30 13:01:29;;;;;;;1.58;0.88;;;33.20;39.10;;;;;;5092585;28;20028;-88
2022/08/30 13:04:18;;;;;;;1.02;0.50;;;33.30;39.10;;;;;;5088746;28;20016;-88
2022/08/30 13:06:56;;;;;;;1.60;0.45;;;33.40;38.70;;;;;;5087503;28;20017;-89
2022/08/30 13:09:25;;;;;;;1.42;0.40;;;33.50;38.60;;;;;;5080528;28;20144;-88
2022/08/30 13:11:52;;;;;;;1.83;0.47;;;33.60;38.60;;;;;;5078189;28;20314;-89
2022/08/30 13:14:32;;;;;;;2.45;0.50;;;33.80;38.40;;;;;;5078619;28;20020;-90
2022/08/30 13:17:07;;;;;;;0.95;0.30;;;33.90;38.10;;;;;;5070808;28;20360;-89